Time;durP1;ratioP1;P1;durP2;ratioP2;P2;SDS_P1;SDS_P2;PMS_P1;PMS_P2;Temp;Humidity;BMP_temperature;BMP_pressure;BME280_temperature;BME280_humidity;BME280_pressure;Samples;Min_cycle;Max_cycle;Signal;HPM_P1;HPM_P2
2022/02/22 00:01:19;;;;;;;4.33;1.23;;;;;;;;;;5027685;28;20129;-66
2022/02/22 00:03:46;;;;;;;4.03;1.30;;;;;;;;;;5041967;28;20055;-66
2022/02/22 00:06:13;;;;;;;5.33;1.33;;;;;;;;;;5050343;28;20100;-66
2022/02/22 00:08:39;;;;;;;4.67;1.50;;;;;;;;;;5053668;28;20025;-66
2022/02/22 00:11:06;;;;;;;5.13;1.83;;;;;;;;;;5052955;28;20049;-66
2022/02/22 00:13:33;;;;;;;6.37;1.30;;;;;;;;;;5053145;28;20032;-68
2022/02/22 00:16:00;;;;;;;3.23;1.40;;;;;;;;;;5053566;28;20043;-66
2022/02/22 00:18:27;;;;;;;16.83;2.30;;;;;;;;;;5051329;28;20464;-66
2022/02/22 00:20:54;;;;;;;5.50;1.93;;;;;;;;;;5048304;28;20155;-66
2022/02/22 00:23:21;;;;;;;2.27;1.50;;;;;;;;;;5047846;28;20099;-66
2022/02/22 00:25:48;;;;;;;9.33;1.60;;;;;;;;;;5048345;28;20456;-66
2022/02/22 00:28:17;;;;;;;8.00;1.40;;;;;;;;;;5048954;28;20021;-66
2022/02/22 00:30:44;;;;;;;3.80;1.70;;;;;;;;;;5053241;28;20052;-66
2022/02/22 00:33:11;;;;;;;5.43;1.40;;;;;;;;;;5052617;28;20040;-66
2022/02/22 00:35:38;;;;;;;6.00;1.90;;;;;;;;;;5053121;28;20017;-66
2022/02/22 00:38:04;;;;;;;7.47;1.57;;;;;;;;;;5052898;28;20028;-66
2022/02/22 00:40:31;;;;;;;4.13;1.53;;;;;;;;;;5051489;28;20021;-66
2022/02/22 00:42:58;;;;;;;7.77;2.20;;;;;;;;;;5047207;28;20082;-65
2022/02/22 00:45:26;;;;;;;6.47;1.83;;;;;;;;;;5047784;28;20021;-66
2022/02/22 00:47:53;;;;;;;8.47;2.00;;;;;;;;;;5047665;28;20028;-66
2022/02/22 00:50:20;;;;;;;12.17;2.23;;;;;;;;;;5048852;28;20025;-66
2022/02/22 00:52:46;;;;;;;12.10;1.80;;;;;;;;;;5052044;28;20559;-66
2022/02/22 00:55:13;;;;;;;6.07;1.80;;;;;;;;;;5052432;28;20029;-66
2022/02/22 00:57:41;;;;;;;7.10;1.70;;;;;;;;;;5052724;28;20348;-65
2022/02/22 01:00:09;;;;;;;11.60;2.10;;;;;;;;;;5052306;28;20111;-66
2022/02/22 01:02:36;;;;;;;5.30;1.70;;;;;;;;;;5050899;28;20021;-66
2022/02/22 01:05:02;;;;;;;8.97;2.07;;;;;;;;;;5047336;28;20029;-66
2022/02/22 01:07:29;;;;;;;7.60;2.40;;;;;;;;;;5047371;28;20088;-66
2022/02/22 01:09:56;;;;;;;5.57;1.60;;;;;;;;;;5047384;28;20052;-66
2022/02/22 01:12:22;;;;;;;6.90;1.97;;;;;;;;;;5047835;28;20479;-65
2022/02/22 01:14:49;;;;;;;6.77;1.83;;;;;;;;;;5052229;28;20070;-66
2022/02/22 01:17:16;;;;;;;6.87;2.53;;;;;;;;;;5052033;28;20064;-66
2022/02/22 01:19:43;;;;;;;4.60;2.20;;;;;;;;;;5052348;28;20022;-66
2022/02/22 01:22:09;;;;;;;4.90;2.20;;;;;;;;;;5052117;28;20021;-66
2022/02/22 01:24:36;;;;;;;9.30;2.90;;;;;;;;;;5051533;28;20025;-66
2022/02/22 01:27:03;;;;;;;13.07;3.50;;;;;;;;;;5047133;28;20483;-65
2022/02/22 01:29:31;;;;;;;5.03;2.20;;;;;;;;;;5046768;28;20502;-66
2022/02/22 01:31:58;;;;;;;9.90;1.90;;;;;;;;;;5046758;28;20037;-66
2022/02/22 01:34:24;;;;;;;3.70;1.73;;;;;;;;;;5046775;28;20432;-66
2022/02/22 01:36:51;;;;;;;6.13;2.10;;;;;;;;;;5052037;28;20159;-66
2022/02/22 01:39:18;;;;;;;6.80;1.63;;;;;;;;;;5051830;28;20028;-66
2022/02/22 01:41:45;;;;;;;12.00;2.60;;;;;;;;;;5052057;28;20361;-66
2022/02/22 01:44:12;;;;;;;4.73;1.97;;;;;;;;;;5052162;28;20036;-65
2022/02/22 01:46:39;;;;;;;7.53;2.07;;;;;;;;;;5051491;28;20490;-65
2022/02/22 01:49:07;;;;;;;12.70;2.70;;;;;;;;;;5046123;28;20025;-65
2022/02/22 01:51:33;;;;;;;15.57;4.23;;;;;;;;;;5045982;28;20025;-65
2022/02/22 01:54:00;;;;;;;20.97;3.30;;;;;;;;;;5046595;28;20029;-66
2022/02/22 01:56:27;;;;;;;5.97;1.60;;;;;;;;;;5046950;28;20028;-65
2022/02/22 01:58:53;;;;;;;11.87;2.27;;;;;;;;;;5051685;28;20032;-65
2022/02/22 02:01:20;;;;;;;7.40;1.90;;;;;;;;;;5050727;28;20479;-66
2022/02/22 02:03:49;;;;;;;8.03;2.60;;;;;;;;;;5051965;28;20087;-65
2022/02/22 02:06:18;;;;;;;6.90;2.23;;;;;;;;;;5055009;28;20037;-65
2022/02/22 02:08:45;;;;;;;11.40;3.50;;;;;;;;;;5056038;28;20446;-65
2022/02/22 02:11:12;;;;;;;5.90;1.97;;;;;;;;;;5050597;28;20028;-65
2022/02/22 02:13:38;;;;;;;12.47;2.30;;;;;;;;;;5050494;28;20037;-65
2022/02/22 02:16:07;;;;;;;9.93;2.17;;;;;;;;;;5050162;28;20103;-66
2022/02/22 02:18:33;;;;;;;8.50;2.37;;;;;;;;;;5050555;28;20065;-65
2022/02/22 02:21:01;;;;;;;10.53;2.47;;;;;;;;;;5054576;28;20447;-65
2022/02/22 02:23:27;;;;;;;7.27;2.30;;;;;;;;;;5055690;28;20025;-65
2022/02/22 02:25:54;;;;;;;5.50;1.90;;;;;;;;;;5055351;28;20039;-62
2022/02/22 02:28:21;;;;;;;7.43;2.90;;;;;;;;;;5055281;28;20383;-63
2022/02/22 02:30:49;;;;;;;8.17;3.63;;;;;;;;;;5055601;28;20025;-63
2022/02/22 02:33:16;;;;;;;8.13;2.13;;;;;;;;;;5050641;28;20446;-63
2022/02/22 02:35:43;;;;;;;7.07;2.43;;;;;;;;;;5049560;28;20025;-63
2022/02/22 02:38:09;;;;;;;9.33;2.80;;;;;;;;;;5049699;28;20108;-64
2022/02/22 02:40:36;;;;;;;7.67;2.53;;;;;;;;;;5049960;28;20060;-64
2022/02/22 02:43:03;;;;;;;9.00;2.70;;;;;;;;;;5054121;28;20502;-64
2022/02/22 02:45:30;;;;;;;6.30;2.17;;;;;;;;;;5055268;28;20021;-65
2022/02/22 02:47:56;;;;;;;5.70;2.57;;;;;;;;;;5055108;28;20075;-64
2022/02/22 02:50:23;;;;;;;7.77;2.30;;;;;;;;;;5054851;28;20033;-66
2022/02/22 02:52:50;;;;;;;10.20;2.83;;;;;;;;;;5054552;28;20040;-65
2022/02/22 02:55:16;;;;;;;13.30;3.13;;;;;;;;;;5050002;28;20025;-65
2022/02/22 02:57:43;;;;;;;7.80;2.57;;;;;;;;;;5049679;28;20039;-66
2022/02/22 03:00:10;;;;;;;8.47;2.70;;;;;;;;;;5049752;28;20032;-67
2022/02/22 03:02:37;;;;;;;6.23;2.37;;;;;;;;;;5049735;28;20091;-67
2022/02/22 03:05:04;;;;;;;5.73;2.30;;;;;;;;;;5053109;28;20029;-66
2022/02/22 03:07:30;;;;;;;11.33;2.53;;;;;;;;;;5054698;28;20573;-67
2022/02/22 03:09:57;;;;;;;8.93;2.83;;;;;;;;;;5053943;28;20025;-67
2022/02/22 03:12:24;;;;;;;5.70;2.30;;;;;;;;;;5054547;28;20078;-67
2022/02/22 03:14:52;;;;;;;5.57;2.23;;;;;;;;;;5054814;28;20033;-67
2022/02/22 03:17:19;;;;;;;6.50;2.00;;;;;;;;;;5050332;28;20506;-67
2022/02/22 03:19:45;;;;;;;5.73;2.70;;;;;;;;;;5048958;28;20100;-67
2022/02/22 03:22:12;;;;;;;6.97;2.23;;;;;;;;;;5049366;28;20078;-66
2022/02/22 03:24:40;;;;;;;5.93;2.20;;;;;;;;;;5049434;28;20056;-66
2022/02/22 03:27:07;;;;;;;3.43;1.80;;;;;;;;;;5052301;28;20501;-66
2022/02/22 03:29:33;;;;;;;3.20;1.70;;;;;;;;;;5054095;28;20091;-66
2022/02/22 03:32:00;;;;;;;8.33;2.40;;;;;;;;;;5054488;28;20029;-67
2022/02/22 03:34:27;;;;;;;6.60;2.13;;;;;;;;;;5054478;28;20048;-67
2022/02/22 03:36:53;;;;;;;8.17;2.20;;;;;;;;;;5053929;28;20065;-67
2022/02/22 03:39:20;;;;;;;6.37;2.03;;;;;;;;;;5050919;28;20032;-66
2022/02/22 03:41:47;;;;;;;6.97;2.47;;;;;;;;;;5048639;28;20036;-67
2022/02/22 03:44:13;;;;;;;6.57;2.10;;;;;;;;;;5049033;28;20032;-67
2022/02/22 03:46:40;;;;;;;4.93;2.23;;;;;;;;;;5048958;28;20520;-67
2022/02/22 03:49:07;;;;;;;6.20;2.27;;;;;;;;;;5050997;28;20028;-67
2022/02/22 03:51:34;;;;;;;3.67;1.70;;;;;;;;;;5054085;28;20468;-67
2022/02/22 03:54:01;;;;;;;3.97;1.90;;;;;;;;;;5053774;28;20032;-66
2022/02/22 03:56:27;;;;;;;3.40;1.67;;;;;;;;;;5053963;28;20025;-67
2022/02/22 03:58:54;;;;;;;3.63;1.77;;;;;;;;;;5052896;28;20094;-66
2022/02/22 04:01:21;;;;;;;3.63;1.93;;;;;;;;;;5051218;28;20067;-67
2022/02/22 04:03:47;;;;;;;5.03;1.80;;;;;;;;;;5048493;28;20116;-67
2022/02/22 04:06:14;;;;;;;9.37;2.50;;;;;;;;;;5048506;28;20053;-66
2022/02/22 04:08:41;;;;;;;4.07;1.60;;;;;;;;;;5048008;28;20029;-69
2022/02/22 04:11:08;;;;;;;6.47;1.87;;;;;;;;;;5050221;28;20017;-66
2022/02/22 04:13:35;;;;;;;9.50;3.83;;;;;;;;;;5053404;28;20104;-66
2022/02/22 04:16:01;;;;;;;7.63;2.53;;;;;;;;;;5053150;28;20025;-66
2022/02/22 04:18:28;;;;;;;3.70;2.20;;;;;;;;;;5053354;28;20071;-66
2022/02/22 04:20:55;;;;;;;5.47;2.00;;;;;;;;;;5053597;28;20108;-67
2022/02/22 04:23:22;;;;;;;6.90;2.30;;;;;;;;;;5051336;28;20029;-66
2022/02/22 04:25:49;;;;;;;5.10;2.10;;;;;;;;;;5048406;28;20025;-66
2022/02/22 04:28:15;;;;;;;5.93;2.20;;;;;;;;;;5046370;28;20063;-66
2022/02/22 04:30:42;;;;;;;3.83;2.00;;;;;;;;;;5048219;28;20214;-66
2022/02/22 04:33:09;;;;;;;6.10;2.50;;;;;;;;;;5049276;28;20029;-66
2022/02/22 04:35:36;;;;;;;6.10;2.57;;;;;;;;;;5052880;28;20043;-66
2022/02/22 04:38:02;;;;;;;5.33;2.10;;;;;;;;;;5052983;28;20029;-66
2022/02/22 04:40:29;;;;;;;5.50;2.63;;;;;;;;;;5053164;28;20029;-66
2022/02/22 04:42:56;;;;;;;3.47;1.80;;;;;;;;;;5052878;28;20024;-66
2022/02/22 04:45:23;;;;;;;5.43;2.43;;;;;;;;;;5051235;28;20036;-67
2022/02/22 04:47:50;;;;;;;4.90;2.23;;;;;;;;;;5047363;28;20086;-66
2022/02/22 04:50:19;;;;;;;7.93;2.47;;;;;;;;;;5047935;28;20025;-66
2022/02/22 04:52:45;;;;;;;8.73;3.10;;;;;;;;;;5047440;28;20132;-66
2022/02/22 04:55:12;;;;;;;5.53;2.87;;;;;;;;;;5048307;28;20062;-66
2022/02/22 04:57:39;;;;;;;6.23;3.27;;;;;;;;;;5052831;28;20020;-66
2022/02/22 05:00:07;;;;;;;6.07;3.17;;;;;;;;;;5052605;28;20025;-66
2022/02/22 05:02:33;;;;;;;3.60;2.20;;;;;;;;;;5032788;28;20029;-66
2022/02/22 05:05:00;;;;;;;6.43;2.40;;;;;;;;;;5032502;28;20172;-66
2022/02/22 05:07:27;;;;;;;4.83;2.60;;;;;;;;;;5031916;28;20480;-66
2022/02/22 05:09:53;;;;;;;5.73;3.20;;;;;;;;;;5027577;28;20029;-66
2022/02/22 05:12:20;;;;;;;4.87;2.57;;;;;;;;;;5045649;28;20317;-66
2022/02/22 05:14:47;;;;;;;6.53;2.20;;;;;;;;;;5047418;28;20480;-66
2022/02/22 05:17:13;;;;;;;5.23;2.13;;;;;;;;;;5047220;28;20021;-67
2022/02/22 05:19:40;;;;;;;3.60;2.07;;;;;;;;;;5052372;28;20028;-66
2022/02/22 05:22:07;;;;;;;3.90;2.50;;;;;;;;;;5051971;28;20017;-66
2022/02/22 05:24:34;;;;;;;6.07;2.43;;;;;;;;;;5052468;28;20040;-66
2022/02/22 05:27:00;;;;;;;4.67;2.70;;;;;;;;;;5052359;28;20021;-66
2022/02/22 05:29:27;;;;;;;4.27;2.37;;;;;;;;;;5052115;28;20345;-66
2022/02/22 05:31:54;;;;;;;4.57;1.97;;;;;;;;;;5046847;28;20044;-66
2022/02/22 05:34:20;;;;;;;6.50;2.50;;;;;;;;;;5047039;28;20087;-66
2022/02/22 05:36:49;;;;;;;5.00;2.53;;;;;;;;;;5046612;28;20043;-65
2022/02/22 05:39:15;;;;;;;4.20;2.50;;;;;;;;;;5046812;28;20483;-66
2022/02/22 05:41:42;;;;;;;6.73;2.43;;;;;;;;;;5051472;28;20021;-66
2022/02/22 05:44:09;;;;;;;11.00;2.63;;;;;;;;;;5052259;28;20021;-66
2022/02/22 05:46:36;;;;;;;3.37;1.70;;;;;;;;;;5034334;28;20028;-66
2022/02/22 05:49:02;;;;;;;5.43;2.10;;;;;;;;;;5052132;28;20021;-66
2022/02/22 05:51:29;;;;;;;5.13;2.33;;;;;;;;;;5051853;28;20021;-66
2022/02/22 05:53:56;;;;;;;4.80;2.30;;;;;;;;;;5046324;28;20068;-65
2022/02/22 05:56:22;;;;;;;4.47;2.30;;;;;;;;;;5046904;28;20057;-66
2022/02/22 05:58:49;;;;;;;7.97;2.50;;;;;;;;;;5046838;28;20025;-66
2022/02/22 06:01:16;;;;;;;5.43;2.13;;;;;;;;;;5046396;28;20055;-66
2022/02/22 06:03:43;;;;;;;5.73;2.30;;;;;;;;;;5051087;28;20033;-65
2022/02/22 06:06:09;;;;;;;6.50;2.37;;;;;;;;;;5034168;28;20056;-66
2022/02/22 06:08:36;;;;;;;5.60;2.07;;;;;;;;;;5051935;28;20064;-66
2022/02/22 06:11:03;;;;;;;4.83;2.30;;;;;;;;;;5051069;28;20089;-65
2022/02/22 06:13:29;;;;;;;4.20;2.13;;;;;;;;;;5051691;28;20375;-64
2022/02/22 06:15:56;;;;;;;4.87;2.20;;;;;;;;;;5047218;28;20025;-63
2022/02/22 06:18:23;;;;;;;3.97;2.33;;;;;;;;;;5028848;28;20040;-63
2022/02/22 06:20:49;;;;;;;6.83;2.90;;;;;;;;;;5045972;28;20044;-67
2022/02/22 06:23:16;;;;;;;7.37;2.23;;;;;;;;;;5046235;28;20029;-66
2022/02/22 06:25:43;;;;;;;4.77;2.80;;;;;;;;;;5050282;28;20023;-67
2022/02/22 06:28:10;;;;;;;4.20;2.30;;;;;;;;;;5051432;28;20120;-67
2022/02/22 06:30:36;;;;;;;7.47;2.60;;;;;;;;;;5051492;28;20086;-65
2022/02/22 06:33:03;;;;;;;6.60;3.27;;;;;;;;;;5049834;28;20029;-66
2022/02/22 06:35:30;;;;;;;6.90;2.60;;;;;;;;;;5049528;28;20037;-66
2022/02/22 06:37:57;;;;;;;3.03;1.83;;;;;;;;;;5046198;28;20028;-66
2022/02/22 06:40:23;;;;;;;6.37;2.37;;;;;;;;;;5044533;28;20533;-65
2022/02/22 06:42:50;;;;;;;5.80;2.40;;;;;;;;;;5044385;28;20379;-65
2022/02/22 06:45:17;;;;;;;12.73;2.87;;;;;;;;;;5044757;28;20033;-65
2022/02/22 06:47:44;;;;;;;6.27;3.00;;;;;;;;;;5048257;28;20055;-65
2022/02/22 06:50:11;;;;;;;5.53;2.50;;;;;;;;;;5050442;28;20029;-65
2022/02/22 06:52:39;;;;;;;6.17;2.20;;;;;;;;;;5053828;28;20036;-66
2022/02/22 06:55:07;;;;;;;7.70;2.80;;;;;;;;;;5055145;28;20479;-65
2022/02/22 06:57:34;;;;;;;9.70;2.97;;;;;;;;;;5054897;28;20025;-64
2022/02/22 07:00:00;;;;;;;6.40;2.43;;;;;;;;;;5050854;28;20028;-65
2022/02/22 07:02:27;;;;;;;5.07;2.50;;;;;;;;;;5049948;28;20781;-65
2022/02/22 07:04:54;;;;;;;5.43;2.30;;;;;;;;;;5049604;28;20028;-65
2022/02/22 07:07:20;;;;;;;3.87;2.40;;;;;;;;;;5049681;28;20393;-65
2022/02/22 07:09:47;;;;;;;6.37;2.90;;;;;;;;;;5051755;28;20387;-65
2022/02/22 07:12:14;;;;;;;4.30;2.20;;;;;;;;;;5054816;28;20078;-66
2022/02/22 07:14:40;;;;;;;4.10;2.10;;;;;;;;;;5054489;28;20021;-65
2022/02/22 07:17:09;;;;;;;5.63;2.40;;;;;;;;;;5054564;28;20096;-65
2022/02/22 07:19:36;;;;;;;6.23;2.43;;;;;;;;;;5054585;28;20488;-66
2022/02/22 07:22:03;;;;;;;5.00;1.90;;;;;;;;;;5051511;28;20104;-65
2022/02/22 07:24:29;;;;;;;5.40;2.60;;;;;;;;;;5049233;28;20083;-65
2022/02/22 07:26:56;;;;;;;8.23;3.00;;;;;;;;;;5049158;28;20021;-65
2022/02/22 07:29:23;;;;;;;5.80;3.17;;;;;;;;;;5048681;28;20104;-64
2022/02/22 07:31:50;;;;;;;5.50;2.63;;;;;;;;;;5051471;28;20021;-65
2022/02/22 07:34:17;;;;;;;5.77;2.90;;;;;;;;;;5054213;28;20033;-65
2022/02/22 07:36:43;;;;;;;8.77;2.93;;;;;;;;;;5054341;28;20495;-65
2022/02/22 07:39:10;;;;;;;8.60;2.53;;;;;;;;;;5054323;28;20098;-65
2022/02/22 07:41:37;;;;;;;4.47;2.50;;;;;;;;;;5053841;28;20143;-65
2022/02/22 07:44:05;;;;;;;5.23;2.33;;;;;;;;;;5051484;28;20108;-65
2022/02/22 07:46:31;;;;;;;7.20;2.77;;;;;;;;;;5048441;28;20024;-65
2022/02/22 07:48:58;;;;;;;3.70;2.37;;;;;;;;;;5048851;28;20021;-64
2022/02/22 07:51:25;;;;;;;3.97;1.90;;;;;;;;;;5048529;28;20029;-65
2022/02/22 07:53:51;;;;;;;5.30;2.43;;;;;;;;;;5050564;28;20108;-65
2022/02/22 07:56:18;;;;;;;5.33;2.77;;;;;;;;;;5054115;28;20024;-65
2022/02/22 07:58:45;;;;;;;8.83;2.80;;;;;;;;;;5054096;28;20367;-65
2022/02/22 08:01:12;;;;;;;6.40;2.67;;;;;;;;;;5053429;28;20083;-65
2022/02/22 08:03:43;;;;;;;4.97;2.80;;;;;;;;;;5053670;28;20104;-65
2022/02/22 08:06:11;;;;;;;6.70;2.80;;;;;;;;;;5051360;28;20033;-65
2022/02/22 08:08:39;;;;;;;7.43;2.40;;;;;;;;;;5048344;28;20498;-65
2022/02/22 08:11:05;;;;;;;6.30;2.30;;;;;;;;;;5047991;28;20033;-65
2022/02/22 08:13:32;;;;;;;7.77;2.77;;;;;;;;;;5048314;28;20032;-65
2022/02/22 08:15:59;;;;;;;4.50;2.73;;;;;;;;;;5049878;28;20028;-64
2022/02/22 08:18:26;;;;;;;5.33;3.07;;;;;;;;;;5053371;28;20021;-65
2022/02/22 08:20:53;;;;;;;4.53;2.50;;;;;;;;;;5053256;28;20063;-65
2022/02/22 08:23:19;;;;;;;5.10;2.90;;;;;;;;;;5053551;28;20268;-65
2022/02/22 08:25:46;;;;;;;4.97;2.50;;;;;;;;;;5053342;28;20029;-65
2022/02/22 08:28:13;;;;;;;7.03;2.70;;;;;;;;;;5051239;28;20305;-65
2022/02/22 08:30:39;;;;;;;4.53;2.03;;;;;;;;;;5047415;28;20025;-65
2022/02/22 08:33:09;;;;;;;7.70;2.87;;;;;;;;;;5047554;28;20286;-65
2022/02/22 08:35:36;;;;;;;6.33;2.93;;;;;;;;;;5047832;28;20056;-65
2022/02/22 08:38:03;;;;;;;6.27;3.13;;;;;;;;;;5049121;28;20729;-64
2022/02/22 08:40:30;;;;;;;5.67;2.87;;;;;;;;;;5052749;28;20265;-65
2022/02/22 08:42:57;;;;;;;6.47;2.70;;;;;;;;;;5052693;28;20270;-64
2022/02/22 08:45:24;;;;;;;9.73;3.73;;;;;;;;;;5053131;28;20268;-65
2022/02/22 08:47:51;;;;;;;5.77;2.70;;;;;;;;;;5052650;28;20778;-65
2022/02/22 08:50:19;;;;;;;5.17;2.87;;;;;;;;;;5051140;28;20768;-65
2022/02/22 08:52:45;;;;;;;6.40;2.97;;;;;;;;;;5047209;28;20294;-64
2022/02/22 08:55:13;;;;;;;7.93;2.77;;;;;;;;;;5047613;28;20273;-64
2022/02/22 08:57:40;;;;;;;7.37;2.97;;;;;;;;;;5047424;28;20281;-65
2022/02/22 09:00:10;;;;;;;4.00;2.27;;;;;;;;;;5048302;28;20296;-65
2022/02/22 09:02:37;;;;;;;5.93;2.80;;;;;;;;;;5051185;28;20318;-64
2022/02/22 09:05:04;;;;;;;6.83;2.50;;;;;;;;;;5052703;28;20266;-65
2022/02/22 09:07:31;;;;;;;8.93;2.53;;;;;;;;;;5052630;28;20262;-64
2022/02/22 09:09:58;;;;;;;4.67;2.30;;;;;;;;;;5052701;28;20258;-64
2022/02/22 09:12:24;;;;;;;8.60;2.23;;;;;;;;;;5050727;28;20286;-65
2022/02/22 09:14:51;;;;;;;6.30;2.53;;;;;;;;;;5046531;28;20262;-65
2022/02/22 09:17:18;;;;;;;5.30;2.67;;;;;;;;;;5046988;28;20741;-64
2022/02/22 09:19:45;;;;;;;3.80;2.17;;;;;;;;;;5046892;28;20258;-65
2022/02/22 09:22:12;;;;;;;4.67;1.90;;;;;;;;;;5047270;28;20420;-64
2022/02/22 09:24:38;;;;;;;6.07;1.87;;;;;;;;;;5052500;28;20257;-65
2022/02/22 09:27:05;;;;;;;5.30;2.40;;;;;;;;;;5052299;28;20788;-65
2022/02/22 09:29:32;;;;;;;3.87;1.93;;;;;;;;;;5052317;28;20377;-65
2022/02/22 09:31:58;;;;;;;3.53;1.53;;;;;;;;;;5051816;28;20265;-64
2022/02/22 09:34:25;;;;;;;3.50;2.00;;;;;;;;;;5050688;28;20335;-65
2022/02/22 09:36:52;;;;;;;4.33;1.70;;;;;;;;;;5046674;28;20622;-65
2022/02/22 09:39:18;;;;;;;3.83;1.90;;;;;;;;;;5046791;28;20335;-64
2022/02/22 09:41:45;;;;;;;5.60;2.80;;;;;;;;;;5046489;28;20270;-65
2022/02/22 09:44:12;;;;;;;8.03;3.47;;;;;;;;;;5046816;28;20254;-65
2022/02/22 09:46:40;;;;;;;6.20;2.43;;;;;;;;;;5052107;28;20814;-65
2022/02/22 09:49:07;;;;;;;4.57;2.43;;;;;;;;;;5051979;28;20262;-63
2022/02/22 09:51:33;;;;;;;5.63;2.50;;;;;;;;;;5051526;28;20747;-65
2022/02/22 09:54:00;;;;;;;5.20;2.27;;;;;;;;;;5051847;28;20775;-64
2022/02/22 09:56:27;;;;;;;5.33;2.70;;;;;;;;;;5051584;28;20267;-65
2022/02/22 09:58:53;;;;;;;4.47;2.10;;;;;;;;;;5046602;28;20262;-65
2022/02/22 10:01:20;;;;;;;8.30;2.80;;;;;;;;;;5046281;28;20756;-65
2022/02/22 10:03:59;;;;;;;8.93;3.30;;;;;;;;;;5046499;28;20340;-66
2022/02/22 10:06:26;;;;;;;4.43;2.47;;;;;;;;;;5046581;28;20266;-65
2022/02/22 10:08:56;;;;;;;5.63;2.17;;;;;;;;;;5051808;28;20316;-64
2022/02/22 10:11:23;;;;;;;4.27;2.50;;;;;;;;;;5051618;28;20276;-65
2022/02/22 10:13:50;;;;;;;3.60;1.80;;;;;;;;;;5051749;28;20796;-64
2022/02/22 10:16:17;;;;;;;3.90;2.13;;;;;;;;;;5051924;28;20282;-64
2022/02/22 10:18:50;;;;;;;5.20;2.37;;;;;;;;;;5050614;28;20304;-64
2022/02/22 10:21:17;;;;;;;4.87;2.07;;;;;;;;;;5046137;28;20645;-64
2022/02/22 10:23:44;;;;;;;5.43;2.53;;;;;;;;;;5046454;28;20269;-64
2022/02/22 10:26:21;;;;;;;3.80;1.80;;;;;;;;;;5046484;28;20277;-65
2022/02/22 10:28:48;;;;;;;18.33;6.13;;;;;;;;;;5050843;28;20250;-64
2022/02/22 10:31:15;;;;;;;5.57;2.87;;;;;;;;;;5054880;28;20258;-64
2022/02/22 10:33:45;;;;;;;5.00;2.43;;;;;;;;;;5055664;28;20290;-64
2022/02/22 10:36:21;;;;;;;4.43;2.20;;;;;;;;;;5055470;28;20342;-64
2022/02/22 10:38:47;;;;;;;5.10;2.53;;;;;;;;;;5055394;28;20261;-64
2022/02/22 10:41:15;;;;;;;4.10;2.23;;;;;;;;;;5053849;28;20269;-64
2022/02/22 10:43:50;;;;;;;3.43;2.13;;;;;;;;;;5049503;28;20292;-65
2022/02/22 10:46:16;;;;;;;3.42;1.88;;;;;;;;;;5050059;28;20258;-64
2022/02/22 10:48:44;;;;;;;4.93;2.10;;;;;;;;;;5050172;28;20021;-64
2022/02/22 10:51:16;;;;;;;6.13;2.53;;;;;;;;;;5050438;28;20357;-64
2022/02/22 10:53:44;;;;;;;4.27;1.83;;;;;;;;;;5054954;28;20289;-64
2022/02/22 10:56:12;;;;;;;4.90;2.73;;;;;;;;;;5054810;28;20257;-65
2022/02/22 10:58:40;;;;;;;4.43;2.10;;;;;;;;;;5055338;28;20682;-64
2022/02/22 11:01:10;;;;;;;4.17;1.97;;;;;;;;;;5054577;28;20270;-64
2022/02/22 11:03:38;;;;;;;3.30;1.77;;;;;;;;;;5053365;28;20258;-65
2022/02/22 11:06:04;;;;;;;6.80;3.30;;;;;;;;;;5049394;28;20277;-64
2022/02/22 11:08:33;;;;;;;4.07;2.40;;;;;;;;;;5049288;28;20250;-66
2022/02/22 11:11:05;;;;;;;6.30;2.70;;;;;;;;;;5049547;28;20258;-64
2022/02/22 11:13:33;;;;;;;4.03;2.23;;;;;;;;;;5050739;28;20286;-65
2022/02/22 11:16:11;;;;;;;10.50;3.53;;;;;;;;;;5054673;28;20654;-65
2022/02/22 11:18:46;;;;;;;4.80;2.90;;;;;;;;;;5054466;28;20258;-65
2022/02/22 11:21:13;;;;;;;6.65;2.97;;;;;;;;;;5054759;28;20296;-65
2022/02/22 11:23:40;;;;;;;4.77;2.57;;;;;;;;;;5054572;28;20036;-65
2022/02/22 11:26:09;;;;;;;4.83;2.70;;;;;;;;;;5052016;28;20254;-64
2022/02/22 11:28:39;;;;;;;7.13;2.63;;;;;;;;;;5049236;28;20323;-65
2022/02/22 11:31:07;;;;;;;6.17;2.80;;;;;;;;;;5048803;28;20272;-64
2022/02/22 11:33:41;;;;;;;3.47;2.03;;;;;;;;;;5048445;28;20286;-64
2022/02/22 11:36:08;;;;;;;8.07;2.13;;;;;;;;;;5051262;28;20337;-64
2022/02/22 11:38:45;;;;;;;8.37;2.30;;;;;;;;;;5053730;28;20274;-64
2022/02/22 11:41:16;;;;;;;6.53;2.03;;;;;;;;;;5054316;28;20298;-64
2022/02/22 11:43:51;;;;;;;4.40;2.03;;;;;;;;;;5053538;28;20665;-63
2022/02/22 11:46:17;;;;;;;;;;;;;;;;;;5054663;28;20343;-64
2022/02/22 11:48:44;;;;;;;3.97;1.83;;;;;;;;;;5050911;28;19911;-64
2022/02/22 11:51:14;;;;;;;4.60;1.60;;;;;;;;;;5048837;28;20286;-64
2022/02/22 11:53:41;;;;;;;3.30;2.03;;;;;;;;;;5048459;28;20298;-64
2022/02/22 11:56:08;;;;;;;3.50;1.57;;;;;;;;;;5048496;28;20285;-64
2022/02/22 11:58:36;;;;;;;4.27;2.03;;;;;;;;;;5051055;28;20242;-64
2022/02/22 12:01:07;;;;;;;3.83;1.83;;;;;;;;;;5053725;28;20345;-64
2022/02/22 12:03:42;;;;;;;2.97;1.90;;;;;;;;;;5053938;28;20250;-64
2022/02/22 12:06:09;;;;;;;5.37;2.03;;;;;;;;;;5053728;28;20304;-64
2022/02/22 12:08:46;;;;;;;6.33;2.20;;;;;;;;;;5053522;28;20761;-63
2022/02/22 12:11:16;;;;;;;4.30;1.63;;;;;;;;;;5049563;28;20775;-64
2022/02/22 12:13:44;;;;;;;4.20;1.50;;;;;;;;;;5048346;28;20282;-64
2022/02/22 12:16:14;;;;;;;7.00;2.27;;;;;;;;;;5047951;28;20261;-64
2022/02/22 12:18:45;;;;;;;4.77;1.80;;;;;;;;;;5048113;28;20254;-64
2022/02/22 12:21:13;;;;;;;5.13;2.77;;;;;;;;;;5051588;28;20616;-64
2022/02/22 12:23:40;;;;;;;5.13;1.30;;;;;;;;;;5053396;28;20740;-64
2022/02/22 12:26:10;;;;;;;7.13;1.67;;;;;;;;;;5053090;28;20329;-64
2022/02/22 12:28:46;;;;;;;4.87;1.70;;;;;;;;;;5053133;28;20266;-64
2022/02/22 12:31:23;;;;;;;3.80;2.30;;;;;;;;;;5053441;28;20288;-64
2022/02/22 12:33:49;;;;;;;3.67;1.83;;;;;;;;;;5048400;28;20654;-64
2022/02/22 12:36:18;;;;;;;5.17;1.73;;;;;;;;;;5047957;28;20250;-65
2022/02/22 12:38:45;;;;;;;5.43;2.67;;;;;;;;;;5047449;28;20274;-64
2022/02/22 12:41:15;;;;;;;4.00;2.30;;;;;;;;;;5047564;28;20696;-63
2022/02/22 12:43:49;;;;;;;5.97;2.50;;;;;;;;;;5052090;28;20256;-64
2022/02/22 12:46:16;;;;;;;6.87;1.93;;;;;;;;;;5053069;28;20258;-64
2022/02/22 12:48:43;;;;;;;3.90;1.73;;;;;;;;;;5052607;28;20315;-63
2022/02/22 12:51:18;;;;;;;3.50;1.80;;;;;;;;;;5052231;28;20301;-64
2022/02/22 12:53:44;;;;;;;4.82;2.35;;;;;;;;;;5052841;28;20304;-64
2022/02/22 12:56:12;;;;;;;6.70;1.90;;;;;;;;;;5047472;28;20048;-63
2022/02/22 12:58:41;;;;;;;8.17;3.50;;;;;;;;;;5046964;28;20286;-64
2022/02/22 13:01:12;;;;;;;5.67;2.03;;;;;;;;;;5047496;28;20348;-64
2022/02/22 13:03:40;;;;;;;6.80;1.70;;;;;;;;;;5046989;28;20266;-64
2022/02/22 13:06:07;;;;;;;7.27;1.77;;;;;;;;;;5052252;28;20645;-64
2022/02/22 13:08:33;;;;;;;5.80;2.30;;;;;;;;;;5052704;28;20329;-64
2022/02/22 13:11:00;;;;;;;5.60;2.40;;;;;;;;;;5051970;28;20361;-64
2022/02/22 13:13:28;;;;;;;5.13;1.90;;;;;;;;;;5052511;28;20294;-64
2022/02/22 13:15:55;;;;;;;5.90;1.90;;;;;;;;;;5052482;28;20273;-64
2022/02/22 13:18:25;;;;;;;5.83;1.50;;;;;;;;;;5047003;28;20258;-63
2022/02/22 13:20:53;;;;;;;8.13;2.30;;;;;;;;;;5046748;28;20262;-63
2022/02/22 13:23:32;;;;;;;3.60;1.90;;;;;;;;;;5047158;28;20285;-64
2022/02/22 13:25:59;;;;;;;4.07;1.70;;;;;;;;;;5045728;28;20274;-64
2022/02/22 13:28:37;;;;;;;7.17;1.97;;;;;;;;;;5051762;28;20257;-64
2022/02/22 13:31:13;;;;;;;6.33;1.57;;;;;;;;;;5052055;28;20281;-64
2022/02/22 13:33:40;;;;;;;7.03;2.23;;;;;;;;;;5051724;28;20285;-64
2022/02/22 13:36:13;;;;;;;4.83;1.80;;;;;;;;;;5052398;28;20582;-64
2022/02/22 13:38:40;;;;;;;5.37;1.83;;;;;;;;;;5050702;28;20274;-64
2022/02/22 13:41:15;;;;;;;6.53;1.80;;;;;;;;;;5046823;28;20262;-65
2022/02/22 13:43:41;;;;;;;18.48;2.67;;;;;;;;;;5046498;28;20272;-65
2022/02/22 13:46:08;;;;;;;12.77;2.97;;;;;;;;;;5046527;28;20028;-64
2022/02/22 13:48:35;;;;;;;5.50;2.00;;;;;;;;;;5047259;28;20250;-64
2022/02/22 13:51:09;;;;;;;8.17;2.50;;;;;;;;;;5052175;28;20331;-65
2022/02/22 13:53:37;;;;;;;12.77;3.45;;;;;;;;;;5051673;28;20286;-65
2022/02/22 13:56:05;;;;;;;11.10;2.17;;;;;;;;;;5051974;28;20048;-64
2022/02/22 13:58:33;;;;;;;10.27;2.00;;;;;;;;;;5051892;28;20254;-64
2022/02/22 14:01:01;;;;;;;7.60;2.37;;;;;;;;;;5051880;28;20250;-65
2022/02/22 14:03:28;;;;;;;4.87;2.10;;;;;;;;;;5050639;28;20874;-64
2022/02/22 14:05:57;;;;;;;7.17;2.37;;;;;;;;;;5050245;28;20274;-64
2022/02/22 14:08:24;;;;;;;8.27;2.30;;;;;;;;;;5050685;28;20345;-65
2022/02/22 14:10:51;;;;;;;4.80;1.70;;;;;;;;;;5051616;28;20484;-65
2022/02/22 14:13:18;;;;;;;6.97;2.30;;;;;;;;;;5055783;28;20029;-64
2022/02/22 14:15:46;;;;;;;7.20;1.40;;;;;;;;;;5055853;28;20017;-66
2022/02/22 14:18:13;;;;;;;8.30;1.77;;;;;;;;;;5055016;28;20017;-66
2022/02/22 14:20:41;;;;;;;3.57;1.60;;;;;;;;;;5055921;28;20028;-66
2022/02/22 14:23:08;;;;;;;5.13;1.60;;;;;;;;;;5054123;28;20467;-65
2022/02/22 14:25:36;;;;;;;5.80;2.13;;;;;;;;;;5050242;28;20032;-67
2022/02/22 14:28:04;;;;;;;13.63;2.60;;;;;;;;;;5049636;28;20028;-65
2022/02/22 14:30:31;;;;;;;4.87;2.20;;;;;;;;;;5050178;28;20033;-66
2022/02/22 14:32:58;;;;;;;11.87;4.80;;;;;;;;;;5050874;28;20107;-66
2022/02/22 14:35:25;;;;;;;11.43;5.23;;;;;;;;;;5055485;28;20032;-66
2022/02/22 14:37:52;;;;;;;14.83;6.43;;;;;;;;;;5055247;28;20036;-66
2022/02/22 14:40:18;;;;;;;13.47;5.10;;;;;;;;;;5055411;28;20078;-66
2022/02/22 14:42:45;;;;;;;16.70;6.20;;;;;;;;;;5054621;28;20033;-65
2022/02/22 14:45:13;;;;;;;11.10;4.60;;;;;;;;;;5054211;28;20075;-66